Terminal Aerodrome Forecast
Issued by NWS

Home | Current Version | Previous Version | Text Only | Print | Product List | Glossary On
Versions: 1 2 3 4 5 6 7 8 9 10 11 12 13 14 15
426
FTUS42 TJSJ 232341
TAFJMZ
TAF
TJMZ 232341Z 2400/2424 06008KT P6SM FEW050
     FM241400 07010KT P6SM SCT040
     FM241600 09015KT P6SM VCSH SCT025 SCT040 SCT070
     FM242300 06008KT P6SM FEW025 SCT040
      AMD NOT SKED=

USA.gov is the U.S. government's official web portal to all federal, state and local government web resources and services.